Ault Field, Washington
Current Conditions -  °F | °C
As of 8:56 PM on Friday 24 Oct 2014 (Local Time) from KNUW Reporting Station
Overcast Overcast  
Wind Chill: 52°   Ceiling: 12000
Heat Index: 52°   Visibility: 10mi
Dew Point: 45°   Wind: 0mph
Humidity: 77%   Direction: NA
Pressure: 29.86"   Gusts: NA
Location:  48.3182°N, 122.634°W
Report Text: KNUW 250356Z 00000KT 10SM SCT030 BKN120 OVC200 11/07 A2986 RMK AO2 SLP115 T01110072 $
Loading
Personal Weather Stations






























Interactive Weather Map
Tropical Storm Tracking
New forecast layout! Learn more

10-Day Weather Forecast

Advertisements
Track Severe Weather on mobile